createdAt,value
2019-04-14T00:00:44.748Z,14.93
2019-04-14T00:03:37.548Z,15.30
2019-04-14T00:06:09.108Z,14.33
2019-04-14T00:08:40.015Z,17.37
2019-04-14T00:11:10.768Z,14.93
2019-04-14T00:13:41.541Z,14.40
2019-04-14T00:16:12.202Z,14.60
2019-04-14T00:18:42.960Z,15.37
2019-04-14T00:21:13.674Z,15.80
2019-04-14T00:23:45.622Z,15.97
2019-04-14T00:26:31.834Z,15.27
2019-04-14T00:29:04.490Z,14.23
2019-04-14T00:31:37.004Z,14.60
2019-04-14T00:34:26.801Z,15.20
2019-04-14T00:37:25.936Z,16.80
2019-04-14T00:40:01.950Z,15.60
2019-04-14T00:42:38.725Z,15.57
2019-04-14T00:45:30.646Z,15.13
2019-04-14T00:48:05.607Z,13.97
2019-04-14T00:50:31.874Z,14.73
2019-04-14T00:53:03.449Z,14.90
2019-04-14T00:55:34.355Z,14.83
2019-04-14T00:58:05.991Z,15.40
2019-04-14T01:00:38.678Z,14.00
2019-04-14T01:03:13.373Z,15.00
2019-04-14T01:05:44.243Z,13.83
2019-04-14T01:08:16.237Z,15.50
2019-04-14T01:10:47.686Z,16.00
2019-04-14T01:13:18.497Z,16.50
2019-04-14T01:15:58.737Z,15.93
2019-04-14T01:18:21.722Z,16.10
2019-04-14T01:20:53.521Z,17.43
2019-04-14T01:23:24.464Z,17.40
2019-04-14T01:25:56.435Z,17.53
2019-04-14T01:28:27.220Z,17.33
2019-04-14T01:30:58.940Z,16.03
2019-04-14T01:33:29.818Z,15.63
2019-04-14T01:36:01.622Z,15.73
2019-04-14T01:38:34.261Z,14.80
2019-04-14T01:41:06.326Z,15.80
2019-04-14T01:43:38.462Z,16.40
2019-04-14T01:46:16.110Z,16.60
2019-04-14T01:48:41.880Z,16.40
2019-04-14T01:51:30.910Z,16.30
2019-04-14T01:54:29.947Z,16.67
2019-04-14T01:57:19.889Z,13.50
2019-04-14T01:59:50.617Z,12.90
2019-04-14T02:02:24.805Z,14.93
2019-04-14T02:04:55.562Z,13.97
2019-04-14T02:07:27.553Z,12.83
2019-04-14T02:09:59.407Z,14.07
2019-04-14T02:12:30.313Z,17.53
2019-04-14T02:15:00.977Z,15.57
2019-04-14T02:17:32.722Z,13.20
2019-04-14T02:20:05.647Z,11.57
2019-04-14T02:22:37.535Z,13.10
2019-04-14T02:25:08.258Z,13.20
2019-04-14T02:27:38.928Z,13.20
2019-04-14T02:30:15.205Z,13.03
2019-04-14T02:33:15.381Z,14.10
2019-04-14T02:35:50.212Z,13.10
2019-04-14T02:38:23.230Z,12.60
2019-04-14T02:43:26.998Z,13.07
2019-04-14T02:45:49.958Z,12.40
2019-04-14T02:48:36.138Z,11.37
2019-04-14T02:50:59.467Z,13.50
2019-04-14T02:53:32.561Z,12.20
2019-04-14T02:58:36.536Z,13.10
2019-04-14T03:01:09.913Z,12.23
2019-04-14T03:03:41.317Z,12.93
2019-04-14T03:11:21.172Z,12.30
2019-04-14T03:16:25.761Z,13.77
2019-04-14T03:18:57.830Z,13.17
2019-04-14T03:24:31.710Z,14.17
2019-04-14T03:27:06.333Z,11.97
2019-04-14T03:29:45.047Z,13.47
2019-04-14T03:32:39.069Z,11.70
2019-04-14T03:39:51.176Z,12.13
2019-04-14T03:42:30.883Z,12.97
2019-04-14T03:44:56.250Z,11.53
2019-04-14T03:47:24.899Z,12.33
2019-04-14T03:50:05.980Z,11.33
2019-04-14T03:52:37.687Z,11.73
2019-04-14T03:54:56.982Z,11.10
2019-04-14T03:57:14.911Z,10.90
2019-04-14T03:59:45.712Z,10.00
2019-04-14T04:02:16.372Z,11.40
2019-04-14T04:04:47.107Z,11.77
2019-04-14T04:07:17.697Z,11.67
2019-04-14T04:09:58.640Z,11.40
2019-04-14T04:12:29.613Z,12.40
2019-04-14T04:15:00.179Z,12.33
2019-04-14T04:17:40.926Z,11.83
2019-04-14T04:20:39.526Z,12.47
2019-04-14T04:23:31.453Z,11.00
2019-04-14T04:26:19.846Z,11.60
2019-04-14T04:28:58.359Z,12.43
2019-04-14T04:31:39.536Z,11.93
2019-04-14T04:34:21.268Z,11.47
2019-04-14T04:37:01.954Z,12.60
2019-04-14T04:39:36.958Z,10.47
2019-04-14T04:42:08.993Z,12.17
2019-04-14T04:44:39.986Z,13.37
2019-04-14T04:47:10.645Z,12.17
2019-04-14T04:49:42.490Z,12.63
2019-04-14T04:52:14.568Z,12.63
2019-04-14T04:54:45.871Z,12.40
2019-04-14T04:57:17.734Z,12.43
2019-04-14T04:59:49.625Z,13.57
2019-04-14T05:02:20.391Z,12.40
2019-04-14T05:04:51.071Z,13.03
2019-04-14T05:07:23.029Z,12.57
2019-04-14T05:10:13.190Z,13.77
2019-04-14T05:12:56.421Z,12.10
2019-04-14T05:15:36.429Z,12.23
2019-04-14T05:18:09.151Z,10.60
2019-04-14T05:20:40.039Z,11.33
2019-04-14T05:23:10.620Z,12.40
2019-04-14T05:25:41.277Z,11.23
2019-04-14T05:28:11.855Z,12.50
2019-04-14T05:30:43.548Z,11.70
2019-04-14T05:33:14.435Z,11.30
2019-04-14T05:35:45.170Z,10.00
2019-04-14T05:38:16.909Z,10.07
2019-04-14T05:40:47.672Z,10.50
2019-04-14T05:43:33.708Z,10.30
2019-04-14T05:45:50.843Z,10.87
2019-04-14T05:48:22.762Z,10.67
2019-04-14T05:50:53.968Z,9.87
2019-04-14T05:53:24.614Z,9.90
2019-04-14T05:55:59.166Z,8.90
2019-04-14T05:58:29.994Z,8.60
2019-04-14T06:01:00.631Z,9.70
2019-04-14T06:03:32.151Z,9.27
2019-04-14T06:06:03.192Z,9.70
2019-04-14T06:08:33.796Z,9.10
2019-04-14T06:11:04.524Z,9.77
2019-04-14T06:13:35.176Z,9.23
2019-04-14T06:16:05.870Z,9.60
2019-04-14T06:18:36.869Z,9.30
2019-04-14T06:21:07.472Z,9.67
2019-04-14T06:23:40.781Z,9.53
2019-04-14T06:26:11.507Z,8.87
2019-04-14T06:28:42.212Z,10.10
2019-04-14T06:31:36.281Z,10.50
2019-04-14T06:34:26.039Z,9.13
2019-04-14T06:37:14.387Z,9.40
2019-04-14T06:39:48.112Z,10.20
2019-04-14T06:42:18.773Z,9.53
2019-04-14T06:44:49.345Z,10.53
2019-04-14T06:47:19.932Z,10.43
2019-04-14T06:49:50.497Z,10.30
2019-04-14T06:52:21.196Z,9.77
2019-04-14T06:54:51.729Z,11.10
2019-04-14T06:57:22.496Z,9.80
2019-04-14T06:59:53.179Z,10.03
2019-04-14T07:02:23.832Z,9.93
2019-04-14T07:04:54.377Z,10.57
2019-04-14T07:07:24.942Z,10.10
2019-04-14T07:09:55.548Z,10.50
2019-04-14T07:12:26.161Z,10.53
2019-04-14T07:14:56.804Z,11.03
2019-04-14T07:17:27.502Z,11.47
2019-04-14T07:20:02.294Z,10.20
2019-04-14T07:22:30.479Z,11.57
2019-04-14T07:25:01.116Z,11.13
2019-04-14T07:27:31.735Z,10.03
2019-04-14T07:30:24.572Z,11.30
2019-04-14T07:33:17.316Z,10.43
2019-04-14T07:36:15.252Z,10.07
2019-04-14T07:39:10.743Z,10.60
2019-04-14T07:41:55.336Z,10.20
2019-04-14T07:44:45.008Z,10.10
2019-04-14T07:47:19.493Z,10.60
2019-04-14T07:49:58.198Z,11.30
2019-04-14T07:52:35.744Z,10.60
2019-04-14T07:55:11.740Z,10.97
2019-04-14T07:58:04.270Z,10.73
2019-04-14T08:00:45.116Z,12.13
2019-04-14T08:03:25.663Z,11.20
2019-04-14T08:05:56.977Z,11.33
2019-04-14T08:08:27.613Z,10.07
2019-04-14T08:10:58.483Z,11.33
2019-04-14T08:13:29.082Z,11.70
2019-04-14T08:15:59.644Z,10.40
2019-04-14T08:18:30.279Z,10.90
2019-04-14T08:21:01.017Z,11.00
2019-04-14T08:23:31.574Z,10.97
2019-04-14T08:26:02.281Z,10.80
2019-04-14T08:28:32.942Z,12.93
2019-04-14T08:31:03.583Z,11.97
2019-04-14T08:33:34.651Z,10.93
2019-04-14T08:36:05.365Z,11.17
2019-04-14T08:38:36.013Z,12.63
2019-04-14T08:41:09.283Z,12.17
2019-04-14T08:43:56.902Z,11.47
2019-04-14T08:46:46.131Z,12.20
2019-04-14T08:49:23.435Z,11.17
2019-04-14T08:52:24.149Z,11.43
2019-04-14T08:55:19.567Z,11.63
2019-04-14T08:57:56.968Z,12.87
2019-04-14T09:00:52.780Z,12.43
2019-04-14T09:03:41.505Z,10.60
2019-04-14T09:06:32.812Z,12.65
2019-04-14T09:09:27.803Z,13.50
2019-04-14T09:12:01.208Z,12.35
2019-04-14T09:14:31.935Z,11.40
2019-04-14T09:17:02.725Z,11.60
2019-04-14T09:19:34.943Z,11.23
2019-04-14T09:22:05.775Z,11.00
2019-04-14T09:24:36.505Z,11.97
2019-04-14T09:27:07.259Z,12.10
2019-04-14T09:29:37.954Z,11.87
2019-04-14T09:32:12.685Z,13.53
2019-04-14T09:34:43.500Z,11.23
2019-04-14T09:37:14.268Z,11.20
2019-04-14T09:39:44.893Z,11.90
2019-04-14T09:42:17.196Z,11.77
2019-04-14T09:44:52.440Z,11.77
2019-04-14T09:47:23.112Z,11.80
2019-04-14T09:49:53.873Z,10.80
2019-04-14T09:52:24.502Z,12.20
2019-04-14T09:54:58.744Z,13.70
2019-04-14T09:57:31.218Z,13.70
2019-04-14T10:00:01.822Z,13.90
2019-04-14T10:02:34.613Z,13.68
2019-04-14T10:05:05.628Z,12.82
2019-04-14T10:07:39.396Z,13.10
2019-04-14T10:10:10.573Z,14.28
2019-04-14T10:12:43.254Z,13.98
2019-04-14T10:15:14.847Z,13.78
2019-04-14T10:17:45.465Z,12.50
2019-04-14T10:20:18.238Z,11.37
2019-04-14T10:22:49.098Z,12.68
2019-04-14T10:25:19.807Z,12.23
2019-04-14T10:27:50.490Z,12.90
2019-04-14T10:30:21.838Z,12.80
2019-04-14T10:32:52.546Z,14.03
2019-04-14T10:35:28.584Z,12.57
2019-04-14T10:37:59.518Z,11.07
2019-04-14T10:40:30.270Z,12.00
2019-04-14T10:43:00.977Z,12.90
2019-04-14T10:45:33.951Z,11.80
2019-04-14T10:48:06.514Z,11.67
2019-04-14T10:50:38.756Z,10.03
2019-04-14T10:53:10.840Z,12.20
2019-04-14T10:59:32.831Z,12.07
2019-04-14T11:02:28.906Z,11.30
2019-04-14T11:05:25.021Z,12.93
2019-04-14T11:08:15.874Z,10.93
2019-04-14T11:10:54.142Z,10.23
2019-04-14T11:13:36.544Z,12.30
2019-04-14T11:16:26.078Z,12.90
2019-04-14T11:19:04.053Z,10.90
2019-04-14T11:21:42.625Z,12.40
2019-04-14T11:24:14.972Z,12.00
2019-04-14T11:26:52.602Z,11.07
2019-04-14T11:29:26.782Z,10.90
2019-04-14T11:32:16.660Z,10.60
2019-04-14T11:34:52.770Z,12.43
2019-04-14T11:37:41.232Z,10.37
2019-04-14T11:40:17.950Z,10.23
2019-04-14T11:42:59.382Z,10.40
2019-04-14T11:45:34.515Z,10.23
2019-04-14T11:48:11.154Z,11.10
2019-04-14T11:50:44.393Z,10.97
2019-04-14T11:53:18.857Z,11.90
2019-04-14T11:55:49.854Z,11.77
2019-04-14T11:58:20.593Z,10.90
2019-04-14T12:01:04.249Z,11.07
2019-04-14T12:04:04.558Z,11.80
2019-04-14T12:07:12.660Z,11.93
2019-04-14T12:09:50.660Z,12.03
2019-04-14T12:12:22.806Z,12.20
2019-04-14T12:14:58.088Z,12.40
2019-04-14T12:17:30.172Z,12.33
2019-04-14T12:20:01.184Z,12.43
2019-04-14T12:22:32.284Z,13.47
2019-04-14T12:25:06.343Z,12.30
2019-04-14T12:27:39.658Z,15.03
2019-04-14T12:30:13.598Z,13.30
2019-04-14T12:32:44.912Z,13.13
2019-04-14T12:35:17.894Z,12.20
2019-04-14T12:37:48.670Z,13.07
2019-04-14T12:40:19.692Z,14.20
2019-04-14T12:43:00.738Z,14.80
2019-04-14T12:46:08.863Z,12.97
2019-04-14T12:48:57.935Z,14.60
2019-04-14T12:51:33.866Z,13.20
2019-04-14T12:54:07.780Z,17.53
2019-04-14T12:56:38.476Z,14.43
2019-04-14T12:59:22.957Z,14.17
2019-04-14T13:02:11.152Z,14.40
2019-04-14T13:04:42.151Z,13.40
2019-04-14T13:07:12.891Z,12.40
2019-04-14T13:09:44.784Z,12.80
2019-04-14T13:12:15.887Z,15.73
2019-04-14T13:14:50.087Z,14.37
2019-04-14T13:17:24.248Z,15.00
2019-04-14T13:19:58.294Z,16.03
2019-04-14T13:22:34.126Z,10.83
2019-04-14T13:25:13.645Z,13.87
2019-04-14T13:30:28.417Z,13.63
2019-04-14T13:33:08.083Z,9.87
2019-04-14T13:35:57.335Z,10.90
2019-04-14T13:38:47.516Z,9.70
2019-04-14T13:41:18.392Z,12.73
2019-04-14T13:43:52.099Z,11.57
2019-04-14T13:46:22.827Z,9.60
2019-04-14T13:49:00.838Z,11.70
2019-04-14T13:51:31.664Z,11.60
2019-04-14T13:54:02.612Z,10.90
2019-04-14T13:56:33.232Z,10.50
2019-04-14T13:59:05.376Z,12.10
2019-04-14T14:01:43.896Z,13.63
2019-04-14T14:04:16.187Z,11.30
2019-04-14T14:06:58.901Z,9.67
2019-04-14T14:09:30.424Z,11.80
2019-04-14T14:12:25.218Z,13.03
2019-04-14T14:15:13.937Z,14.17
2019-04-14T14:18:54.641Z,13.80
2019-04-14T14:21:50.556Z,10.23
2019-04-14T14:24:56.950Z,10.97
2019-04-14T14:27:50.160Z,14.07
2019-04-14T14:30:21.654Z,12.30
2019-04-14T14:32:55.589Z,11.07
2019-04-14T14:35:26.603Z,11.70
2019-04-14T14:38:05.319Z,12.70
2019-04-14T14:40:32.773Z,12.23
2019-04-14T14:43:05.386Z,14.57
2019-04-14T14:45:48.701Z,10.43
2019-04-14T14:48:41.581Z,11.00
2019-04-14T14:51:34.172Z,9.93
2019-04-14T14:54:04.845Z,10.80
2019-04-14T14:56:35.653Z,11.73
2019-04-14T14:59:07.989Z,11.40
2019-04-14T15:01:39.090Z,12.67
2019-04-14T15:04:10.217Z,13.50
2019-04-14T15:06:44.410Z,13.47
2019-04-14T15:09:15.566Z,12.97
2019-04-14T15:11:50.927Z,13.73
2019-04-14T15:14:28.210Z,14.70
2019-04-14T15:17:02.283Z,13.00
2019-04-14T15:19:41.563Z,16.67
2019-04-14T15:22:20.643Z,15.23
2019-04-14T15:25:17.196Z,17.37
2019-04-14T15:27:50.110Z,15.90
2019-04-14T15:30:34.677Z,13.23
2019-04-14T15:36:44.432Z,15.07
2019-04-14T15:39:18.633Z,14.67
2019-04-14T15:41:58.516Z,14.73
2019-04-14T15:44:30.881Z,18.27
2019-04-14T15:51:28.780Z,15.70
2019-04-14T16:07:30.834Z,16.57
2019-04-14T16:09:09.588Z,17.40
2019-04-14T16:10:11.195Z,16.40
2019-04-14T16:13:16.929Z,18.10
2019-04-14T16:16:36.604Z,17.27
2019-04-14T16:20:02.995Z,17.10
2019-04-14T16:22:51.296Z,20.47
2019-04-14T16:25:29.240Z,20.23
2019-04-14T16:28:13.343Z,21.40
2019-04-14T16:31:03.354Z,19.30
2019-04-14T16:33:51.329Z,19.00
2019-04-14T16:36:22.909Z,19.93
2019-04-14T16:38:53.718Z,16.80
2019-04-14T16:41:26.524Z,17.60
2019-04-14T16:44:01.339Z,17.50
2019-04-14T16:46:32.268Z,18.07
2019-04-14T16:49:03.693Z,17.37
2019-04-14T16:51:42.655Z,17.43
2019-04-14T16:54:23.358Z,18.30
2019-04-14T16:57:36.455Z,18.27
2019-04-14T17:00:08.910Z,20.87
2019-04-14T17:02:42.511Z,19.27
2019-04-14T17:05:13.237Z,20.30
2019-04-14T17:07:48.327Z,17.40
2019-04-14T17:10:21.684Z,19.43
2019-04-14T17:12:52.732Z,20.93
2019-04-14T17:15:42.856Z,20.30
2019-04-14T17:18:21.607Z,19.43
2019-04-14T17:21:10.502Z,21.43
2019-04-14T17:23:48.948Z,21.80
2019-04-14T17:26:47.468Z,19.23
2019-04-14T17:29:39.461Z,19.97
2019-04-14T17:32:25.016Z,19.30
2019-04-14T17:35:27.217Z,20.50
2019-04-14T17:38:04.074Z,17.57
2019-04-14T17:40:58.146Z,18.60
2019-04-14T17:43:39.950Z,19.27
2019-04-14T17:46:23.998Z,20.40
2019-04-14T17:49:25.798Z,18.50
2019-04-14T17:52:14.313Z,19.50
2019-04-14T17:55:12.768Z,18.60
2019-04-14T17:57:54.594Z,19.97
2019-04-14T18:00:47.024Z,18.63
2019-04-14T18:03:39.147Z,20.23
2019-04-14T18:06:38.338Z,19.77
2019-04-14T18:09:18.308Z,19.13
2019-04-14T18:12:11.755Z,19.30
2019-04-14T18:14:59.305Z,19.70
2019-04-14T18:17:47.307Z,19.30
2019-04-14T18:20:40.582Z,20.13
2019-04-14T18:23:11.744Z,19.77
2019-04-14T18:25:44.223Z,19.03
2019-04-14T18:28:40.181Z,20.30
2019-04-14T18:31:40.199Z,21.20
2019-04-14T18:34:16.735Z,19.80
2019-04-14T18:36:52.726Z,20.40
2019-04-14T18:39:42.052Z,19.43
2019-04-14T18:42:19.954Z,19.20
2019-04-14T18:45:08.696Z,18.97
2019-04-14T18:48:08.577Z,19.47
2019-04-14T18:50:47.326Z,18.20
2019-04-14T18:53:23.530Z,19.37
2019-04-14T18:56:03.478Z,18.17
2019-04-14T18:58:46.491Z,19.90
2019-04-14T19:01:22.385Z,19.00
2019-04-14T19:03:55.126Z,19.10
2019-04-14T19:06:36.865Z,19.73
2019-04-14T19:09:08.330Z,18.53
2019-04-14T19:11:55.681Z,20.63
2019-04-14T19:14:35.230Z,20.70
2019-04-14T19:24:41.970Z,18.20
2019-04-14T19:27:17.466Z,18.47
2019-04-14T19:29:52.334Z,20.97
2019-04-14T19:32:25.481Z,18.77
2019-04-14T19:34:57.893Z,19.97
2019-04-14T19:37:29.753Z,18.57
2019-04-14T19:40:00.641Z,17.77
2019-04-14T19:42:31.335Z,19.83
2019-04-14T19:45:02.262Z,17.93
2019-04-14T19:47:34.590Z,18.87
2019-04-14T19:50:07.608Z,19.50
2019-04-14T19:52:39.483Z,19.00
2019-04-14T19:55:19.733Z,19.63
2019-04-14T19:57:45.142Z,19.77
2019-04-14T20:00:16.176Z,19.17
2019-04-14T20:02:46.852Z,21.07
2019-04-14T20:05:20.847Z,21.13
2019-04-14T20:07:54.457Z,19.67
2019-04-14T20:10:25.261Z,19.80
2019-04-14T20:12:56.354Z,20.70
2019-04-14T20:15:29.987Z,18.70
2019-04-14T20:18:07.730Z,21.50
2019-04-14T20:20:54.507Z,21.60
2019-04-14T20:23:46.787Z,19.90
2019-04-14T20:26:23.170Z,21.03
2019-04-14T20:29:01.274Z,22.10
2019-04-14T20:31:48.344Z,21.43
2019-04-14T20:34:24.515Z,21.80
2019-04-14T20:36:56.781Z,20.00
2019-04-14T20:39:42.367Z,21.40
2019-04-14T20:42:12.978Z,21.60
2019-04-14T20:44:49.398Z,20.93
2019-04-14T20:47:20.307Z,21.23
2019-04-14T20:49:51.220Z,21.83
2019-04-14T20:52:22.082Z,21.13
2019-04-14T20:54:56.008Z,25.30
2019-04-14T20:57:29.731Z,20.80
2019-04-14T21:00:00.432Z,19.77
2019-04-14T21:02:53.144Z,20.00
2019-04-14T21:05:42.769Z,23.10
2019-04-14T21:08:41.498Z,19.80
2019-04-14T21:11:26.588Z,20.17
2019-04-14T21:14:09.624Z,21.20
2019-04-14T21:16:55.873Z,20.80
2019-04-14T21:19:33.898Z,20.60
2019-04-14T21:22:22.408Z,21.30
2019-04-14T21:25:14.159Z,20.50
2019-04-14T21:27:56.159Z,21.50
2019-04-14T21:30:37.021Z,19.37
2019-04-14T21:33:12.813Z,19.50
2019-04-14T21:36:00.322Z,19.10
2019-04-14T21:38:46.560Z,20.30
2019-04-14T21:41:23.706Z,19.80
2019-04-14T21:43:54.382Z,22.67
2019-04-14T21:46:25.267Z,20.50
2019-04-14T21:48:55.915Z,22.13
2019-04-14T21:51:45.774Z,21.07
2019-04-14T21:54:17.336Z,21.83
2019-04-14T21:56:53.425Z,21.47
2019-04-14T21:59:28.233Z,20.50
2019-04-14T22:02:32.951Z,21.17
2019-04-14T22:05:22.097Z,20.23
2019-04-14T22:08:21.695Z,21.80
2019-04-14T22:10:55.584Z,20.73
2019-04-14T22:13:26.390Z,20.10
2019-04-14T22:15:57.019Z,21.00
2019-04-14T22:18:27.708Z,22.20
2019-04-14T22:20:58.306Z,20.10
2019-04-14T22:23:28.964Z,21.50
2019-04-14T22:25:59.845Z,20.20
2019-04-14T22:28:30.545Z,21.43
2019-04-14T22:31:01.289Z,19.77
2019-04-14T22:33:31.995Z,21.57
2019-04-14T22:36:02.692Z,20.43
2019-04-14T22:38:33.419Z,18.60
2019-04-14T22:41:05.217Z,19.73
2019-04-14T22:43:35.870Z,20.00
2019-04-14T22:46:10.916Z,21.07
2019-04-14T22:48:41.713Z,21.30
2019-04-14T22:51:12.317Z,20.63
2019-04-14T22:53:42.959Z,19.43
2019-04-14T22:56:13.716Z,20.70
2019-04-14T22:58:44.383Z,19.10
2019-04-14T23:01:22.383Z,18.17
2019-04-14T23:04:04.649Z,17.97
2019-04-14T23:06:54.483Z,18.17
2019-04-14T23:09:47.222Z,18.10
2019-04-14T23:12:31.648Z,19.80
2019-04-14T23:15:20.279Z,17.47
2019-04-14T23:18:08.336Z,18.87
2019-04-14T23:21:00.907Z,18.10
2019-04-14T23:23:49.580Z,18.60
2019-04-14T23:26:20.322Z,17.80
2019-04-14T23:28:51.498Z,17.30
2019-04-14T23:31:22.244Z,18.37
2019-04-14T23:33:53.102Z,17.20
2019-04-14T23:36:23.703Z,17.23
2019-04-14T23:38:55.417Z,18.30
2019-04-14T23:41:26.240Z,18.37
2019-04-14T23:43:56.936Z,18.33
2019-04-14T23:46:27.677Z,19.33
2019-04-14T23:48:58.236Z,21.50
2019-04-14T23:51:30.696Z,23.67
2019-04-14T23:54:01.264Z,21.30
2019-04-14T23:56:32.197Z,21.07
2019-04-14T23:59:02.813Z,18.00
